Time;durP1;ratioP1;P1;durP2;ratioP2;P2;SDS_P1;SDS_P2;PMS_P1;PMS_P2;Temp;Humidity;BMP_temperature;BMP_pressure;BME280_temperature;BME280_humidity;BME280_pressure;Samples;Min_cycle;Max_cycle;Signal;HPM_P1;HPM_P2
2023/10/16 00:01:13;;;;;;;6.10;2.00;;;;;;;8.86;78.95;98758.94;107440;1255;60559;-37
2023/10/16 00:03:42;;;;;;;5.60;1.90;;;;;;;8.89;78.56;98766.87;107467;1253;60018;-37
2023/10/16 00:06:11;;;;;;;5.30;2.20;;;;;;;8.88;78.36;98772.64;107448;1254;73845;-37
2023/10/16 00:08:47;;;;;;;5.90;2.30;;;;;;;8.82;78.50;98766.45;107490;1255;67133;-37
2023/10/16 00:11:18;;;;;;;5.20;2.20;;;;;;;8.76;78.70;98766.98;107416;1253;72677;-37
2023/10/16 00:13:49;;;;;;;4.30;1.50;;;;;;;8.74;78.95;98764.63;107499;1255;61552;-37
2023/10/16 00:16:19;;;;;;;4.70;1.80;;;;;;;8.78;78.77;98762.69;107469;1253;60043;-37
2023/10/16 00:18:47;;;;;;;4.50;2.20;;;;;;;8.83;78.64;98761.14;107492;1253;73902;-37
2023/10/16 00:21:15;;;;;;;3.60;1.70;;;;;;;8.83;78.80;98759.97;107468;1253;67582;-37
2023/10/16 00:23:42;;;;;;;5.90;1.80;;;;;;;8.82;78.65;98761.73;107437;1253;72676;-37
2023/10/16 00:26:12;;;;;;;2.90;1.50;;;;;;;8.72;78.19;98753.63;107460;1253;59673;-37
2023/10/16 00:28:44;;;;;;;;;;;;;;;8.66;78.38;98754.23;107462;1253;59580;-37
2023/10/16 00:31:20;;;;;;;4.40;2.00;;;;;;;8.70;78.27;98755.37;107434;1253;73848;-37
2023/10/16 00:33:50;;;;;;;3.60;1.40;;;;;;;8.72;78.19;98749.77;107446;1254;67588;-38
2023/10/16 00:36:18;;;;;;;;;;;;;;;8.68;78.25;98743.90;107481;1253;71727;-37
2023/10/16 00:38:51;;;;;;;3.80;1.70;;;;;;;8.64;78.39;98740.90;107546;1254;60434;-37
2023/10/16 00:41:28;;;;;;;5.20;2.10;;;;;;;8.58;78.43;98734.80;107557;1254;60267;-37
2023/10/16 00:43:57;;;;;;;6.40;1.90;;;;;;;8.56;78.41;98736.23;107579;1254;73905;-37
2023/10/16 00:46:36;;;;;;;4.00;1.70;;;;;;;8.60;78.39;98730.80;107577;1254;67890;-37
2023/10/16 00:49:06;;;;;;;4.70;1.70;;;;;;;8.66;78.37;98727.73;107559;1254;72654;-37
2023/10/16 00:51:39;;;;;;;4.60;1.60;;;;;;;8.67;78.53;98734.86;107564;1254;60457;-37
2023/10/16 00:54:18;;;;;;;3.40;1.50;;;;;;;8.69;78.61;98734.05;107548;1252;60313;-37
2023/10/16 00:56:49;;;;;;;3.90;2.10;;;;;;;8.67;78.46;98732.85;107568;1254;72872;-37
2023/10/16 00:59:17;;;;;;;3.40;1.50;;;;;;;8.64;78.40;98731.34;107541;1258;67652;-37
2023/10/16 01:01:44;;;;;;;4.10;1.70;;;;;;;8.68;78.11;98737.42;107522;1253;72702;-37
2023/10/16 01:04:17;;;;;;;4.40;1.70;;;;;;;8.73;78.08;98742.59;107543;1253;59664;-37
2023/10/16 01:06:45;;;;;;;5.70;2.80;;;;;;;8.74;78.25;98745.48;107388;1259;60409;-37
2023/10/16 01:09:35;;;;;;;3.10;1.70;;;;;;;8.77;78.04;98744.98;107548;1257;73853;-37
2023/10/16 01:12:07;;;;;;;13.80;1.90;;;;;;;8.72;77.64;98747.91;107579;1257;67586;-36
2023/10/16 01:14:38;;;;;;;2.90;1.60;;;;;;;8.65;77.66;98743.00;107543;1253;72693;-37
2023/10/16 01:17:09;;;;;;;3.90;1.60;;;;;;;8.70;77.63;98736.69;107557;1254;60378;-37
2023/10/16 01:19:37;;;;;;;3.00;1.40;;;;;;;8.79;77.51;98721.61;107403;1254;60316;-37
2023/10/16 01:22:05;;;;;;;4.80;1.70;;;;;;;8.82;77.22;98711.07;107515;1254;73896;-36
2023/10/16 01:24:32;;;;;;;4.80;1.60;;;;;;;8.84;77.12;98714.90;107516;1254;66721;-37
2023/10/16 01:27:14;;;;;;;3.40;1.60;;;;;;;8.85;77.34;98705.48;107372;1254;72707;-37
2023/10/16 01:29:42;;;;;;;4.10;1.30;;;;;;;8.86;77.41;98699.02;107504;1254;61563;-37
2023/10/16 01:32:10;;;;;;;4.40;1.70;;;;;;;8.93;77.05;98694.65;107589;1254;60549;-37
2023/10/16 01:34:41;;;;;;;3.10;1.80;;;;;;;8.99;76.58;98695.34;107604;1254;73853;-37
2023/10/16 01:37:09;;;;;;;4.10;1.70;;;;;;;8.98;76.46;98690.77;107592;1254;67554;-37
2023/10/16 01:39:49;;;;;;;3.30;1.70;;;;;;;8.97;76.58;98685.20;107610;1253;72680;-37
2023/10/16 01:42:18;;;;;;;5.60;1.70;;;;;;;8.97;76.56;98685.35;107545;1256;60116;-37
2023/10/16 01:44:51;;;;;;;5.70;2.00;;;;;;;8.93;76.11;98681.36;107607;1259;59586;-37
2023/10/16 01:47:19;;;;;;;2.50;1.60;;;;;;;8.85;76.01;98680.61;107598;1254;73877;-37
2023/10/16 01:49:50;;;;;;;4.10;1.60;;;;;;;8.83;75.90;98690.23;107607;1254;67546;-37
2023/10/16 01:52:17;;;;;;;3.40;1.60;;;;;;;8.83;76.16;98689.16;107576;1254;72708;-37
2023/10/16 01:54:46;;;;;;;3.60;1.60;;;;;;;8.77;76.36;98689.15;107530;1254;60389;-37
2023/10/16 01:57:14;;;;;;;2.50;1.50;;;;;;;8.69;76.64;98692.05;107423;1253;60005;-37
2023/10/16 01:59:44;;;;;;;4.80;1.70;;;;;;;8.61;77.06;98696.39;107574;1254;72519;-36
2023/10/16 02:02:12;;;;;;;3.40;1.70;;;;;;;8.54;77.26;98697.44;107404;1254;66173;-36
2023/10/16 02:04:42;;;;;;;;;;;;;;;8.52;77.32;98697.33;107579;1253;73916;-36
2023/10/16 02:07:11;;;;;;;4.20;2.10;;;;;;;8.50;77.39;98698.77;107561;1254;60554;-37
2023/10/16 02:09:40;;;;;;;4.20;1.90;;;;;;;8.42;77.82;98699.70;107651;1253;60447;-36
2023/10/16 02:12:10;;;;;;;6.80;2.30;;;;;;;8.33;78.04;98696.23;107568;1254;73812;-36
2023/10/16 02:14:41;;;;;;;;;;;;;;;8.25;78.32;98692.77;107528;1254;67912;-36
2023/10/16 02:17:19;;;;;;;5.40;2.00;;;;;;;8.14;78.51;98696.03;107494;1254;72715;-36
2023/10/16 02:19:48;;;;;;;5.60;1.90;;;;;;;8.08;78.80;98704.73;107591;1254;61691;-36
2023/10/16 02:22:16;;;;;;;3.70;1.70;;;;;;;8.08;79.02;98701.27;107502;1254;60307;-36
2023/10/16 02:24:48;;;;;;;3.30;1.60;;;;;;;8.07;79.23;98692.31;107523;1253;72557;-36
2023/10/16 02:27:18;;;;;;;3.50;2.20;;;;;;;8.07;79.27;98681.73;107628;1254;67597;-36
2023/10/16 02:29:49;;;;;;;;;;;;;;;8.04;79.35;98675.96;107588;1254;71723;-36
2023/10/16 02:32:17;;;;;;;4.30;1.70;;;;;;;8.03;79.54;98683.13;106748;1254;1005291;-36
2023/10/16 02:34:44;;;;;;;3.00;1.60;;;;;;;8.05;79.48;98686.94;107396;1254;60284;-36
2023/10/16 02:37:14;;;;;;;4.30;1.80;;;;;;;8.11;79.41;98683.66;107344;1259;73862;-36
2023/10/16 02:39:50;;;;;;;4.30;1.80;;;;;;;8.13;79.50;98684.84;107588;1254;67623;-36
2023/10/16 02:42:19;;;;;;;5.20;1.80;;;;;;;8.12;79.75;98684.21;107591;1254;72699;-36
2023/10/16 02:44:47;;;;;;;5.10;1.80;;;;;;;8.10;79.67;98690.04;107629;1257;60418;-37
2023/10/16 02:47:25;;;;;;;3.70;1.70;;;;;;;8.06;79.63;98690.88;107466;1254;60418;-37
2023/10/16 02:49:56;;;;;;;2.80;1.90;;;;;;;8.06;79.62;98693.35;107510;1254;73828;-37
2023/10/16 02:52:25;;;;;;;;;;;;;;;8.11;79.66;98688.05;107531;1254;67935;-37
2023/10/16 02:54:56;;;;;;;4.80;2.20;;;;;;;8.10;79.66;98691.11;107643;1257;72662;-37
2023/10/16 02:57:27;;;;;;;4.40;2.50;;;;;;;8.06;79.91;98688.43;107537;1254;60514;-37
2023/10/16 02:59:56;;;;;;;8.10;2.80;;;;;;;8.03;80.30;98691.67;107490;1253;60479;-37
2023/10/16 03:02:27;;;;;;;5.50;2.20;;;;;;;8.07;80.42;98690.20;107379;1253;72599;-37
2023/10/16 03:05:10;;;;;;;5.60;2.50;;;;;;;8.12;80.48;98684.67;107605;1254;67588;-37
2023/10/16 03:07:44;;;;;;;5.70;3.20;;;;;;;8.13;80.65;98675.35;107593;1254;72655;-37
2023/10/16 03:10:13;;;;;;;7.40;3.00;;;;;;;8.10;80.74;98677.61;107533;1254;60296;-37
2023/10/16 03:12:43;;;;;;;5.70;2.70;;;;;;;8.06;80.93;98678.62;107418;1254;60382;-36
2023/10/16 03:15:20;;;;;;;4.90;2.00;;;;;;;8.07;81.01;98682.73;107513;1254;72581;-36
2023/10/16 03:17:50;;;;;;;4.10;1.90;;;;;;;8.11;80.79;98677.02;107598;1254;67607;-36
2023/10/16 03:20:36;;;;;;;4.70;2.20;;;;;;;8.07;80.81;98674.02;107504;1254;70974;-37
2023/10/16 03:23:07;;;;;;;5.10;2.50;;;;;;;7.98;80.96;98669.84;107582;1254;60369;-36
2023/10/16 03:28:09;;;;;;;7.10;2.00;;;;;;;7.82;81.43;98675.04;107598;1254;73870;-36
2023/10/16 03:30:39;;;;;;;6.30;2.70;;;;;;;7.83;81.26;98681.21;107397;1254;185792;-36
2023/10/16 03:34:57;;;;;;;7.80;2.80;;;;;;;7.75;81.65;98690.23;104108;1293;600501;-35
2023/10/16 03:37:24;;;;;;;5.30;2.70;;;;;;;7.69;81.96;98685.18;106572;1267;61707;-36
2023/10/16 03:40:04;;;;;;;5.30;2.50;;;;;;;7.68;81.90;98681.08;106586;1266;59120;-36
2023/10/16 03:42:32;;;;;;;6.70;2.70;;;;;;;7.74;81.99;98679.03;106594;1266;72292;-36
2023/10/16 03:45:02;;;;;;;6.40;3.00;;;;;;;7.72;82.14;98674.31;106588;1266;67595;-36
2023/10/16 03:47:32;;;;;;;4.90;2.80;;;;;;;7.71;82.44;98672.58;106506;1270;170039;-36
2023/10/16 03:50:03;;;;;;;7.50;2.40;;;;;;;7.74;82.62;98671.70;106735;1264;60399;-36
2023/10/16 03:52:30;;;;;;;;;;;;;;;7.83;82.38;98674.18;106738;1264;59345;-36
2023/10/16 03:55:12;;;;;;;6.30;2.80;;;;;;;7.89;81.80;98676.54;106687;1264;72364;-36
2023/10/16 03:57:40;;;;;;;5.90;2.60;;;;;;;7.85;81.82;98684.80;106673;1264;66624;-36
2023/10/16 04:00:15;;;;;;;9.80;2.70;;;;;;;7.80;81.84;98684.31;106742;1264;72721;-36
2023/10/16 04:02:44;;;;;;;7.10;2.50;;;;;;;7.78;81.89;98682.27;106724;1267;61717;-36
2023/10/16 04:05:29;;;;;;;7.10;3.00;;;;;;;7.79;81.66;98671.42;106704;1264;59269;-36
2023/10/16 04:07:57;;;;;;;9.90;3.20;;;;;;;7.82;81.46;98667.70;106717;1264;73089;-36
2023/10/16 04:10:28;;;;;;;6.40;2.50;;;;;;;7.81;81.40;98667.05;106704;1264;67955;-36
2023/10/16 04:12:57;;;;;;;8.20;2.80;;;;;;;7.77;81.52;98671.61;106689;1266;72697;-36
2023/10/16 04:18:04;;;;;;;5.90;2.40;;;;;;;7.78;81.09;98674.10;106664;1264;60065;-36
2023/10/16 04:20:44;;;;;;;4.70;2.20;;;;;;;7.79;80.91;98675.05;106739;1264;73119;-36
2023/10/16 04:23:29;;;;;;;7.70;2.60;;;;;;;7.74;80.86;98680.58;106752;1264;67452;-35
2023/10/16 04:31:45;;;;;;;7.00;2.70;;;;;;;7.69;80.87;98678.94;106746;1264;59528;-36
2023/10/16 04:36:52;;;;;;;10.60;2.70;;;;;;;7.69;80.63;98682.58;106802;1264;67895;-36
2023/10/16 04:53:09;;;;;;;7.70;2.80;;;;;;;7.55;80.12;98694.84;106710;1266;72687;-37
2023/10/16 05:09:53;;;;;;;6.50;2.70;;;;;;;7.32;80.10;98691.45;106719;1266;61741;-37
2023/10/16 05:17:58;;;;;;;7.30;2.80;;;;;;;7.20;80.12;98695.90;106741;1263;66671;-37
2023/10/16 05:20:52;;;;;;;10.30;2.90;;;;;;;7.11;80.41;98693.40;106736;1266;72657;-37
2023/10/16 06:15:50;;;;;;;10.70;3.70;;;;;;;6.97;81.10;98723.89;107120;1257;72477;-37
2023/10/16 06:18:17;;;;;;;7.90;3.70;;;;;;;6.94;80.99;98721.29;107128;1258;61688;-37
2023/10/16 06:20:45;;;;;;;7.90;2.70;;;;;;;6.99;80.90;98721.70;107117;1257;59138;-36
2023/10/16 06:23:13;;;;;;;6.70;3.00;;;;;;;7.07;80.74;98726.17;107169;1258;71873;-36
2023/10/16 06:25:47;;;;;;;6.60;3.70;;;;;;;7.08;80.64;98730.35;107159;1263;67596;-37
2023/10/16 06:28:15;;;;;;;8.50;3.40;;;;;;;7.07;80.48;98730.86;107137;1260;72726;-37
2023/10/16 06:30:42;;;;;;;9.70;2.80;;;;;;;7.01;80.36;98731.14;107123;1259;61851;-37
2023/10/16 06:33:14;;;;;;;9.20;2.70;;;;;;;7.04;80.48;98730.89;106334;1257;1003736;-37
2023/10/16 06:35:42;;;;;;;7.40;2.90;;;;;;;7.12;80.42;98735.08;107114;1257;73045;-37
2023/10/16 06:38:11;;;;;;;9.90;3.20;;;;;;;7.13;80.51;98736.41;107136;1257;67582;-36
2023/10/16 06:40:40;;;;;;;8.40;3.20;;;;;;;7.10;80.41;98733.88;107173;1257;72744;-37
2023/10/16 06:43:09;;;;;;;9.40;3.30;;;;;;;7.14;80.34;98742.43;107096;1257;61689;-37
2023/10/16 06:45:42;;;;;;;8.40;3.10;;;;;;;7.17;79.82;98743.96;107196;1257;59500;-37
2023/10/16 06:48:15;;;;;;;10.30;3.20;;;;;;;7.21;80.05;98743.91;107150;1257;72326;-37
2023/10/16 06:50:53;;;;;;;9.60;3.30;;;;;;;7.23;80.05;98750.50;107140;1257;67636;-37
2023/10/16 06:53:24;;;;;;;10.10;3.40;;;;;;;7.22;79.92;98752.86;107112;1257;72692;-37
2023/10/16 06:55:52;;;;;;;8.10;3.20;;;;;;;7.20;79.91;98756.52;107113;1257;60543;-37
2023/10/16 06:58:21;;;;;;;9.00;3.50;;;;;;;7.24;80.04;98754.85;107140;1257;59671;-37
2023/10/16 07:00:52;;;;;;;8.40;3.50;;;;;;;7.33;79.87;98757.96;107116;1257;71771;-37
2023/10/16 07:03:20;;;;;;;11.20;3.30;;;;;;;7.35;79.70;98758.71;107169;1257;67908;-37
2023/10/16 07:05:48;;;;;;;11.40;3.90;;;;;;;7.34;79.31;98758.60;107116;1257;72682;-37
2023/10/16 07:08:20;;;;;;;11.10;4.30;;;;;;;7.30;79.08;98760.37;107159;1257;60098;-37
2023/10/16 07:11:03;;;;;;;8.40;3.10;;;;;;;7.32;79.01;98758.17;107193;1257;59535;-37
2023/10/16 07:13:31;;;;;;;7.10;3.10;;;;;;;7.38;78.91;98756.52;107162;1257;72062;-37
2023/10/16 07:16:03;;;;;;;12.20;3.60;;;;;;;7.36;78.30;98757.56;107105;1257;67894;-37
2023/10/16 07:18:33;;;;;;;9.10;3.20;;;;;;;7.35;78.60;98761.84;107140;1257;71549;-37
2023/10/16 07:23:36;;;;;;;11.30;3.40;;;;;;;7.45;78.92;98769.30;107169;1257;60163;-37
2023/10/16 07:26:05;;;;;;;9.30;3.70;;;;;;;7.56;78.70;98769.85;107152;1257;73046;-37
2023/10/16 07:28:33;;;;;;;8.00;3.70;;;;;;;7.61;78.38;98770.27;107198;1257;66585;-36
2023/10/16 07:31:02;;;;;;;11.60;3.80;;;;;;;7.63;78.13;98772.46;107116;1260;71694;-37
2023/10/16 07:33:32;;;;;;;12.10;3.60;;;;;;;7.65;78.23;98775.36;107128;1259;59647;-37
2023/10/16 07:36:00;;;;;;;8.50;3.20;;;;;;;7.69;77.95;98768.43;107112;1257;60005;-37
2023/10/16 07:38:28;;;;;;;12.40;4.00;;;;;;;7.78;77.68;98767.30;107128;1257;71843;-37
2023/10/16 07:40:59;;;;;;;9.90;3.50;;;;;;;7.78;76.92;98761.67;107215;1257;66350;-36
2023/10/16 07:43:28;;;;;;;9.20;3.40;;;;;;;7.75;77.53;98762.52;107126;1263;73391;-36
2023/10/16 07:48:47;;;;;;;12.10;3.70;;;;;;;7.76;76.73;98761.10;107146;1257;59720;-37
2023/10/16 07:51:16;;;;;;;9.80;3.80;;;;;;;7.85;77.14;98764.75;107110;1257;73169;-37
2023/10/16 07:53:44;;;;;;;12.70;4.20;;;;;;;7.92;77.30;98761.24;107142;1257;67734;-37
2023/10/16 07:58:56;;;;;;;15.90;3.90;;;;;;;8.03;76.33;98758.31;107172;1257;60395;-37
2023/10/16 08:01:36;;;;;;;11.70;3.40;;;;;;;8.13;75.28;98754.88;107173;1257;60438;-37
2023/10/16 08:04:06;;;;;;;8.90;3.10;;;;;;;8.23;74.33;98756.39;107075;1257;73865;-37
2023/10/16 08:06:37;;;;;;;10.20;3.20;;;;;;;8.28;74.17;98761.87;107184;1257;67798;-37
2023/10/16 08:11:58;;;;;;;11.50;3.30;;;;;;;8.42;74.25;98766.07;107140;1259;59320;-37
2023/10/16 08:14:32;;;;;;;8.90;3.60;;;;;;;8.51;74.27;98762.92;107136;1257;60267;-37
2023/10/16 08:17:05;;;;;;;7.80;3.30;;;;;;;8.66;73.69;98753.98;107127;1257;72599;-37
2023/10/16 08:19:34;;;;;;;8.30;3.20;;;;;;;8.78;72.69;98752.48;107165;1257;68154;-37
2023/10/16 08:22:07;;;;;;;10.00;3.10;;;;;;;8.82;71.11;98751.38;107120;1257;72683;-37
2023/10/16 08:24:43;;;;;;;10.80;3.10;;;;;;;8.83;69.82;98749.08;107036;1259;60335;-36
2023/10/16 08:27:23;;;;;;;10.20;2.90;;;;;;;8.81;68.88;98750.45;107212;1257;59304;-37
2023/10/16 08:29:53;;;;;;;8.40;3.00;;;;;;;8.80;68.56;98749.73;107100;1257;73143;-37
2023/10/16 08:35:09;;;;;;;8.60;2.90;;;;;;;8.94;67.04;98751.42;107115;1257;72749;-37
2023/10/16 08:37:41;;;;;;;8.20;3.20;;;;;;;8.99;67.36;98747.57;107134;1257;60546;-37
2023/10/16 08:40:23;;;;;;;8.30;3.00;;;;;;;9.07;67.22;98745.91;107122;1257;60476;-37
2023/10/16 08:43:00;;;;;;;7.10;2.90;;;;;;;9.14;67.06;98747.86;107146;1257;73919;-37
2023/10/16 08:45:29;;;;;;;8.10;3.00;;;;;;;9.21;66.57;98747.80;107122;1257;67936;-37
2023/10/16 08:48:05;;;;;;;8.30;2.80;;;;;;;9.27;65.70;98743.88;107086;1257;71900;-37
2023/10/16 08:50:43;;;;;;;7.80;2.90;;;;;;;9.41;65.80;98742.29;107123;1259;60578;-37
2023/10/16 08:53:33;;;;;;;7.90;3.00;;;;;;;9.49;64.29;98740.08;107135;1257;59315;-37
2023/10/16 08:56:08;;;;;;;8.00;2.40;;;;;;;9.48;62.78;98745.41;107187;1257;73917;-37
2023/10/16 08:58:41;;;;;;;7.40;2.70;;;;;;;9.45;61.57;98741.34;107090;1257;66860;-37
2023/10/16 09:01:09;;;;;;;9.50;2.90;;;;;;;9.43;62.35;98735.14;107117;1257;73252;-37
2023/10/16 09:03:42;;;;;;;7.00;2.80;;;;;;;9.45;62.40;98743.34;107124;1257;60412;-37
2023/10/16 09:06:13;;;;;;;7.40;2.70;;;;;;;9.50;63.22;98743.03;107091;1257;60548;-37
2023/10/16 09:08:41;;;;;;;8.60;3.00;;;;;;;9.59;61.91;98741.91;107108;1257;72587;-37
2023/10/16 09:11:10;;;;;;;7.60;2.80;;;;;;;9.68;60.58;98740.09;107056;1262;67575;-37
2023/10/16 09:13:38;;;;;;;10.00;2.60;;;;;;;9.74;60.60;98740.48;107031;1258;72810;-37
2023/10/16 09:16:15;;;;;;;8.30;2.90;;;;;;;9.82;60.21;98744.45;107082;1257;60329;-37
2023/10/16 09:18:43;;;;;;;5.60;2.50;;;;;;;9.93;59.01;98739.46;107120;1257;60405;-37
2023/10/16 09:21:13;;;;;;;5.80;2.60;;;;;;;10.05;58.64;98745.09;107089;1257;73991;-37
2023/10/16 09:23:42;;;;;;;6.60;2.50;;;;;;;10.14;56.12;98746.65;107087;1257;66931;-37
2023/10/16 09:26:10;;;;;;;10.70;2.10;;;;;;;10.13;55.03;98752.05;107039;1257;72668;-37
2023/10/16 09:28:38;;;;;;;8.40;3.10;;;;;;;10.06;54.52;98745.17;107029;1257;60319;-37
2023/10/16 09:31:08;;;;;;;7.90;2.60;;;;;;;9.99;55.50;98749.27;107125;1257;60990;-37
2023/10/16 09:33:39;;;;;;;7.90;2.20;;;;;;;9.93;55.70;98752.45;107095;1257;72586;-37
2023/10/16 09:36:18;;;;;;;10.90;2.70;;;;;;;9.88;56.73;98748.38;107081;1258;67917;-37
2023/10/16 09:38:51;;;;;;;9.50;2.70;;;;;;;9.85;57.23;98750.04;107132;1257;74772;-37
2023/10/16 09:44:07;;;;;;;11.30;2.90;;;;;;;9.81;56.13;98745.83;107097;1257;59752;-36
2023/10/16 09:49:08;;;;;;;9.00;2.60;;;;;;;9.83;55.31;98753.10;107113;1257;66203;-36
2023/10/16 09:51:36;;;;;;;5.70;2.50;;;;;;;9.83;54.96;98750.88;107080;1257;72803;-37
2023/10/16 09:54:13;;;;;;;6.60;2.40;;;;;;;9.91;56.16;98753.84;107076;1260;60537;-37
2023/10/16 09:56:52;;;;;;;7.30;2.70;;;;;;;10.10;56.26;98753.65;107029;1257;60267;-37
2023/10/16 09:59:23;;;;;;;7.20;2.70;;;;;;;10.33;54.63;98748.96;107058;1257;72813;-37
2023/10/16 10:01:55;;;;;;;6.00;2.40;;;;;;;10.53;55.42;98746.84;107096;1257;67943;-36
2023/10/16 10:04:26;;;;;;;9.40;3.30;;;;;;;10.71;53.73;98749.77;107029;1257;72687;-37
2023/10/16 10:06:55;;;;;;;6.30;2.60;;;;;;;10.75;52.57;98744.77;107033;1259;60255;-37
2023/10/16 10:09:34;;;;;;;7.70;3.00;;;;;;;10.67;52.09;98749.20;107199;1262;60296;-37
2023/10/16 10:12:20;;;;;;;9.00;3.20;;;;;;;10.47;51.92;98753.59;107059;1257;72608;-37
2023/10/16 10:15:15;;;;;;;6.60;2.40;;;;;;;10.27;52.97;98750.84;107144;1257;66361;-37
2023/10/16 10:17:43;;;;;;;9.30;2.80;;;;;;;10.16;54.08;98752.73;107103;1257;71488;-37
2023/10/16 10:20:23;;;;;;;8.90;2.50;;;;;;;10.14;53.97;98752.37;107061;1258;60594;-37
2023/10/16 10:22:56;;;;;;;5.90;2.50;;;;;;;10.14;53.83;98752.13;107085;1257;60584;-36
2023/10/16 10:25:40;;;;;;;9.40;3.00;;;;;;;10.07;53.75;98753.23;107123;1257;73033;-37
2023/10/16 10:28:25;;;;;;;5.20;2.30;;;;;;;9.98;53.81;98753.21;107080;1257;67796;-37
2023/10/16 10:30:55;;;;;;;6.60;2.60;;;;;;;9.90;53.97;98752.27;107087;1263;72702;-37
2023/10/16 10:33:58;;;;;;;7.10;2.10;;;;;;;9.83;53.99;98753.50;107089;1259;60412;-37
2023/10/16 10:36:51;;;;;;;7.20;2.50;;;;;;;9.80;55.18;98755.55;106953;1260;60312;-37
2023/10/16 10:39:29;;;;;;;5.70;2.30;;;;;;;9.81;55.74;98755.87;107053;1257;73943;-36
2023/10/16 10:42:03;;;;;;;4.30;2.10;;;;;;;9.83;55.37;98761.23;107116;1257;68342;-37
2023/10/16 10:44:32;;;;;;;4.60;2.10;;;;;;;9.82;55.79;98758.43;107068;1257;70925;-37
2023/10/16 10:47:05;;;;;;;5.50;2.00;;;;;;;9.78;54.87;98761.92;107125;1257;60352;-37
2023/10/16 10:49:35;;;;;;;5.60;2.00;;;;;;;9.69;55.00;98763.14;107077;1257;60141;-37
2023/10/16 10:52:07;;;;;;;6.70;2.40;;;;;;;9.59;55.74;98767.73;107054;1257;73983;-37
2023/10/16 10:54:35;;;;;;;7.20;2.20;;;;;;;9.51;56.38;98766.62;107136;1257;67753;-37
2023/10/16 10:57:09;;;;;;;3.80;1.70;;;;;;;9.48;56.40;98766.74;107060;1257;72792;-36
2023/10/16 10:59:41;;;;;;;5.30;2.00;;;;;;;9.46;56.13;98768.02;107049;1258;62091;-37
2023/10/16 11:02:21;;;;;;;5.00;1.70;;;;;;;9.44;56.15;98767.85;107114;1257;60369;-37
2023/10/16 11:05:08;;;;;;;;;;;;;;;9.40;55.72;98775.05;107096;1257;72956;-37
2023/10/16 11:07:45;;;;;;;7.20;2.00;;;;;;;9.32;55.92;98775.09;107242;1257;67083;-35
2023/10/16 11:10:13;;;;;;;4.50;1.90;;;;;;;9.22;56.55;98778.27;107226;1258;71240;-36
2023/10/16 11:12:44;;;;;;;5.70;1.90;;;;;;;9.13;57.46;98782.70;107212;1257;60511;-36
2023/10/16 11:15:16;;;;;;;4.50;1.80;;;;;;;9.07;58.45;98788.09;107073;1257;60409;-36
2023/10/16 11:17:44;;;;;;;6.50;2.00;;;;;;;8.99;58.62;98793.60;107219;1257;72583;-36
2023/10/16 11:22:43;;;;;;;4.70;1.90;;;;;;;8.81;58.67;98796.17;107239;1257;72692;-36
2023/10/16 11:25:14;;;;;;;4.20;1.70;;;;;;;8.73;58.76;98797.27;107299;1257;60392;-36
2023/10/16 11:27:42;;;;;;;4.30;1.60;;;;;;;8.66;58.98;98796.30;107094;1257;60406;-36
2023/10/16 11:30:15;;;;;;;5.70;1.80;;;;;;;8.63;58.88;98804.59;107277;1257;72669;-36
2023/10/16 11:32:45;;;;;;;4.10;1.40;;;;;;;8.60;58.87;98807.16;107282;1257;65707;-36
2023/10/16 11:35:14;;;;;;;6.60;1.70;;;;;;;8.57;59.08;98803.15;107120;1257;72687;-36
2023/10/16 11:37:44;;;;;;;5.70;2.00;;;;;;;8.55;59.62;98810.15;107076;1259;60434;-36
2023/10/16 11:40:24;;;;;;;4.70;1.70;;;;;;;8.52;59.40;98810.03;107327;1257;60535;-37
2023/10/16 11:42:52;;;;;;;6.70;1.80;;;;;;;8.48;59.38;98803.55;107227;1257;74006;-36
2023/10/16 11:45:20;;;;;;;3.80;1.80;;;;;;;8.46;59.80;98802.90;107229;1257;67039;-36
2023/10/16 11:48:18;;;;;;;4.40;1.90;;;;;;;8.49;60.08;98806.48;107229;1261;72687;-36
2023/10/16 11:50:40;;;;;;;6.00;2.20;;;;;;;8.54;60.53;98811.14;107178;1257;60401;-36
2023/10/16 11:53:08;;;;;;;5.70;2.10;;;;;;;8.57;60.50;98812.34;107266;1257;60277;-36
2023/10/16 11:55:36;;;;;;;6.40;2.20;;;;;;;8.65;60.64;98813.33;107209;1257;73829;-36
2023/10/16 11:58:06;;;;;;;6.00;2.10;;;;;;;8.71;60.44;98810.59;107057;1257;68201;-36
2023/10/16 12:00:35;;;;;;;4.20;2.00;;;;;;;8.73;60.55;98813.64;107191;1257;72691;-36
2023/10/16 12:03:07;;;;;;;3.90;2.30;;;;;;;8.70;60.63;98812.81;107253;1257;60358;-36
2023/10/16 12:05:35;;;;;;;3.60;1.90;;;;;;;8.66;61.04;98809.65;107264;1257;60395;-37
2023/10/16 12:08:07;;;;;;;4.20;1.90;;;;;;;8.63;61.32;98812.52;107214;1257;73891;-36
2023/10/16 12:10:35;;;;;;;4.90;2.10;;;;;;;8.60;61.61;98821.21;107184;1257;68024;-36
2023/10/16 12:13:03;;;;;;;4.80;2.10;;;;;;;8.57;62.02;98823.45;107219;1257;72753;-36
2023/10/16 12:15:31;;;;;;;4.00;2.10;;;;;;;8.51;62.38;98829.05;107220;1257;60420;-37
2023/10/16 12:18:01;;;;;;;3.80;1.80;;;;;;;8.44;62.65;98831.40;107218;1257;60396;-36
2023/10/16 12:20:30;;;;;;;3.30;2.20;;;;;;;8.43;63.18;98838.17;107241;1258;71747;-36
2023/10/16 12:23:01;;;;;;;4.50;2.30;;;;;;;8.42;63.44;98845.81;107091;1259;67072;-36
2023/10/16 12:25:29;;;;;;;5.20;2.00;;;;;;;8.36;63.77;98841.29;107065;1261;72832;-36
2023/10/16 12:27:57;;;;;;;3.50;1.90;;;;;;;8.27;63.91;98847.29;107068;1262;60189;-37
2023/10/16 12:30:27;;;;;;;5.40;2.10;;;;;;;8.19;64.05;98849.41;107042;1260;60438;-37
2023/10/16 12:32:56;;;;;;;3.80;2.10;;;;;;;8.11;64.33;98859.44;107046;1260;72305;-37
2023/10/16 12:35:25;;;;;;;5.00;2.20;;;;;;;8.03;64.74;98855.40;106987;1260;66901;-37
2023/10/16 12:37:55;;;;;;;5.30;2.10;;;;;;;7.97;64.89;98860.98;107105;1260;72503;-36
2023/10/16 12:40:34;;;;;;;4.20;1.80;;;;;;;7.98;64.98;98863.33;107045;1262;61832;-36
2023/10/16 12:43:02;;;;;;;3.60;2.00;;;;;;;7.94;65.22;98869.95;107082;1262;60437;-36
2023/10/16 12:45:29;;;;;;;3.20;1.80;;;;;;;7.85;65.51;98869.45;107058;1260;74041;-36
2023/10/16 12:47:57;;;;;;;5.30;2.30;;;;;;;7.76;66.12;98874.98;107065;1260;67781;-36
2023/10/16 12:50:27;;;;;;;5.60;2.30;;;;;;;7.73;66.78;98880.05;107076;1260;70991;-36
2023/10/16 12:52:56;;;;;;;2.70;1.70;;;;;;;7.71;67.02;98882.02;107018;1259;61776;-36
2023/10/16 12:55:24;;;;;;;3.90;1.90;;;;;;;7.74;66.83;98881.86;107452;1254;60489;-36
2023/10/16 12:57:53;;;;;;;2.50;1.70;;;;;;;7.76;66.99;98887.59;107498;1254;73962;-37
2023/10/16 13:00:22;;;;;;;2.60;1.60;;;;;;;7.73;67.14;98887.38;107458;1254;66061;-36
2023/10/16 13:02:51;;;;;;;3.70;2.20;;;;;;;7.72;67.15;98888.36;107499;1259;70916;-36
2023/10/16 13:05:19;;;;;;;3.70;2.00;;;;;;;7.68;67.00;98891.52;107517;1258;60451;-36
2023/10/16 13:07:48;;;;;;;3.60;1.90;;;;;;;7.64;67.17;98896.91;107459;1253;59276;-36
2023/10/16 13:10:25;;;;;;;2.90;1.80;;;;;;;7.69;67.45;98897.02;107430;1254;74793;-36
2023/10/16 13:12:53;;;;;;;5.60;1.70;;;;;;;7.75;67.10;98898.08;107466;1254;66813;-36
2023/10/16 13:15:29;;;;;;;2.60;1.60;;;;;;;7.74;67.30;98900.75;107468;1257;72381;-37
2023/10/16 13:17:58;;;;;;;2.40;1.70;;;;;;;7.71;67.43;98908.46;107445;1254;60454;-36
2023/10/16 13:20:27;;;;;;;5.80;1.90;;;;;;;7.67;67.58;98909.60;107529;1259;59239;-36
2023/10/16 13:22:56;;;;;;;4.20;1.80;;;;;;;7.63;67.82;98910.89;107469;1254;73999;-36
2023/10/16 13:25:34;;;;;;;6.50;2.10;;;;;;;7.60;67.96;98904.20;107504;1254;67915;-36
2023/10/16 13:28:07;;;;;;;2.50;1.70;;;;;;;7.63;67.85;98911.13;107478;1254;71469;-36
2023/10/16 13:30:35;;;;;;;2.60;1.40;;;;;;;7.65;67.87;98914.09;107480;1254;60382;-37
2023/10/16 13:33:09;;;;;;;2.60;1.60;;;;;;;7.62;67.70;98917.13;107531;1254;60303;-37
2023/10/16 13:35:38;;;;;;;2.60;1.70;;;;;;;7.56;67.66;98919.06;107477;1254;73973;-37
2023/10/16 13:38:07;;;;;;;2.20;1.70;;;;;;;7.50;67.85;98925.98;107506;1254;66953;-36
2023/10/16 13:40:35;;;;;;;3.20;1.60;;;;;;;7.44;68.45;98923.95;107461;1259;72764;-37
2023/10/16 13:43:10;;;;;;;2.70;1.80;;;;;;;7.47;68.57;98921.92;107488;1254;60832;-37
2023/10/16 13:45:39;;;;;;;2.30;1.70;;;;;;;7.52;68.52;98929.19;107470;1254;60584;-37
2023/10/16 13:48:09;;;;;;;1.80;1.40;;;;;;;7.50;68.47;98929.15;107553;1253;73982;-37
2023/10/16 13:50:40;;;;;;;2.90;1.80;;;;;;;7.44;68.68;98929.19;107479;1258;67823;-37
2023/10/16 13:53:10;;;;;;;4.50;1.90;;;;;;;7.42;68.86;98931.29;107464;1255;72761;-37
2023/10/16 13:55:39;;;;;;;2.80;1.80;;;;;;;7.38;69.22;98935.68;107458;1257;60465;-37
2023/10/16 13:58:08;;;;;;;4.30;1.80;;;;;;;7.38;69.36;98935.18;107535;1254;60383;-37